Latest Weather Observations for Tamworth Airport

IDN60801

Issued at 7:33 am EDT Sunday 1 February 2015 (issued every 30 minutes, with the page automatically refreshed every 10 minutes)

About weather observations | Map of weather stations | Latest weather observations for NSW | Other Formats
Station Details ID: 055325 Name: TAMWORTH AIRPORT AWS Lat: -31.07 Lon: 150.84 Height: 394.9 m
Data from the previous 72 hours. | See also: Recent months at Tamworth Airport
Date/Time
EDT
Temp
°C
App
Temp
°C
Dew
Point
Rel
Hum
%
Delta-T
°C
Wind Press
QNH
hPa
Press
MSL
hPa
Rain
since 9 am
mm
Dir
 
Spd
km/h
Gust
km/h
Spd
kts
Gust
kts
01/07:30am 16.1 14.2 10.6 70 3.0 SE 11 15 6 8 1009.3 1007.0 0.0
01/07:00am 14.0 11.7 10.6 80 1.8 SSE 13 15 7 8 1008.9 1006.6 0.0
01/06:30am 12.4 10.4 10.0 85 1.3 SSE 11 13 6 7 1008.6 1006.3 0.0
01/06:00am 12.3 9.3 9.3 82 1.6 SSE 15 15 8 8 1008.4 1006.0 0.0
01/05:30am 12.4 9.4 9.2 81 1.6 SSE 15 17 8 9 1008.2 1005.8 0.0
01/05:00am 11.8 9.4 8.5 80 1.7 SSE 11 13 6 7 1008.1 1005.7 0.0
01/04:30am 12.4 9.3 8.9 79 1.8 SSE 15 15 8 8 1008.0 1005.6 0.0
01/04:00am 12.9 10.5 8.8 76 2.1 SE 11 15 6 8 1008.0 1005.6 0.0
01/03:30am 13.6 10.1 8.9 73 2.4 SSE 17 17 9 9 1008.1 1005.7 0.0
01/03:00am 13.0 10.0 7.7 70 2.7 S 13 15 7 8 1008.2 1005.8 0.0
01/02:30am 12.7 10.0 7.4 70 2.6 S 11 13 6 7 1008.5 1006.1 0.0
01/02:00am 12.6 10.4 7.7 72 2.5 SSW 9 11 5 6 1008.6 1006.3 0.0
01/01:30am 14.9 12.1 7.0 59 4.0 SE 11 13 6 7 1008.8 1006.5 0.0
01/01:00am 14.1 11.1 7.6 65 3.3 SSE 13 15 7 8 1008.9 1006.6 0.0
01/12:30am 14.2 13.7 7.7 65 3.3 CALM 0 4 0 2 1009.0 1006.7 0.0
01/12:00am 15.8 13.8 7.3 57 4.3 ENE 7 11 4 6 1008.9 1006.6 0.0
 
Date/Time
EDT
Temp
°C
App
Temp
°C
Dew
Point
Rel
Hum
%
Delta-T
°C
Wind Press
QNH
hPa
Press
MSL
hPa
Rain
since 9 am
mm
Dir
 
Spd
km/h
Gust
km/h
Spd
kts
Gust
kts
31/11:30pm 16.6 15.8 6.4 51 5.1 CALM 0 4 0 2 1008.9 1006.6 0.0
31/11:00pm 18.4 16.1 5.9 44 6.3 ESE 7 9 4 5 1009.1 1006.8 0.0
31/10:30pm 16.9 14.9 6.4 50 5.3 E 6 7 3 4 1008.9 1006.6 0.0
31/10:00pm 18.4 15.4 5.9 44 6.3 SW 11 13 6 7 1008.8 1006.5 0.0
31/09:30pm 18.1 14.6 5.3 43 6.3 SW 13 15 7 8 1008.3 1005.9 0.0
31/09:00pm 20.3 17.0 2.6 31 8.4 SW 9 9 5 5 1008.1 1005.7 0.0
31/08:30pm 20.9 17.3 3.2 31 8.6 SW 11 11 6 6 1007.7 1005.3 0.0
31/08:00pm 22.5 18.3 1.5 25 10.0 SW 13 17 7 9 1007.3 1005.0 0.0
31/07:30pm 25.6 20.8 0.3 19 12.0 SW 15 20 8 11 1006.7 1004.4 0.0
31/07:00pm 27.3 21.7 0.1 17 13.0 SW 19 24 10 13 1006.4 1004.1 0.0
31/06:30pm 28.8 23.5 -0.4 15 14.0 W 17 24 9 13 1006.1 1003.7 0.0
31/06:00pm 28.8 23.0 -1.3 14 14.2 WSW 19 28 10 15 1006.0 1003.6 0.0
31/05:30pm 28.7 22.7 -1.4 14 14.2 SW 20 30 11 16 1005.9 1003.5 0.0
31/05:00pm 29.7 24.3 1.2 16 14.2 WSW 19 32 10 17 1006.0 1003.6 0.0
31/04:30pm 29.4 23.8 1.0 16 14.0 W 20 26 11 14 1006.1 1003.7 0.0
31/04:00pm 29.3 24.6 0.9 16 14.0 WSW 15 26 8 14 1006.2 1003.8 0.0
31/03:30pm 29.4 24.3 1.0 16 14.0 WNW 17 28 9 15 1006.5 1004.2 0.0
31/03:00pm 28.7 23.5 0.4 16 13.8 WNW 17 32 9 17 1006.7 1004.4 0.0
31/02:30pm 28.4 24.0 2.6 19 13.0 W 15 24 8 13 1006.8 1004.5 0.0
31/02:00pm 27.9 21.8 2.9 20 12.6 W 24 32 13 17 1007.2 1004.9 0.0
31/01:30pm 27.9 22.4 4.2 22 12.2 W 22 41 12 22 1007.3 1005.0 0.0
31/01:00pm 27.6 21.7 1.9 19 12.7 W 22 35 12 19 1007.8 1005.4 0.0
31/12:30pm 27.6 22.5 3.3 21 12.3 NW 19 28 10 15 1007.9 1005.5 0.0
31/12:00pm 26.7 22.7 2.6 21 12.0 WNW 13 22 7 12 1008.2 1005.8 0.0
31/11:30am 26.2 22.7 3.4 23 11.5 NNW 11 19 6 10 1008.5 1006.1 0.0
31/11:00am 25.0 21.6 4.2 26 10.6 NW 11 15 6 8 1008.9 1006.6 0.0
31/10:30am 23.5 21.1 5.4 31 9.3 NW 7 11 4 6 1009.1 1006.8 0.0
31/10:00am 22.2 20.4 5.6 34 8.5 NNE 4 9 2 5 1009.2 1006.9 0.0
31/09:30am 20.6 18.9 5.8 38 7.5 NE 4 7 2 4 1009.2 1006.9 0.0
31/09:00am 18.3 17.5 6.5 46 6.0 CALM 0 6 0 3 1009.2 1006.9 0.0
31/08:30am 17.5 16.7 8.1 54 4.9 SE 2 6 1 3 1009.2 1006.9 0.0
31/08:00am 14.9 14.4 7.7 62 3.7 CALM 0 0 0 0 1009.2 1006.9 0.0
31/07:30am 13.1 12.6 8.0 71 2.6 CALM 0 0 0 0 1009.0 1006.7 0.0
31/07:00am 11.1 9.2 7.6 79 1.7 S 7 7 4 4 1008.6 1006.3 0.0
31/06:30am 10.5 7.8 7.4 81 1.5 SSE 11 13 6 7 1008.3 1005.9 0.0
31/06:00am 10.7 8.9 7.8 82 1.4 SE 7 9 4 5 1008.0 1005.6 0.0
31/05:30am 10.8 8.9 7.5 80 1.6 SE 7 9 4 5 1007.8 1005.4 0.0
31/05:00am 11.2 9.0 7.7 79 1.7 SE 9 11 5 6 1007.7 1005.3 0.0
31/04:30am 11.4 8.8 7.7 78 1.8 SE 11 13 6 7 1007.5 1005.1 0.0
31/04:00am 11.8 9.9 7.5 75 2.1 SE 7 11 4 6 1007.3 1005.0 0.0
31/03:30am 12.6 12.0 7.3 70 2.6 CALM 0 2 0 1 1007.3 1005.0 0.0
31/03:00am 10.9 10.1 8.3 84 1.3 SSE 2 7 1 4 1007.2 1004.9 0.0
31/02:30am 13.4 11.6 7.8 69 2.8 SE 7 9 4 5 1007.5 1005.1 0.0
31/02:00am 12.8 11.2 8.1 73 2.4 SSE 6 9 3 5 1007.5 1005.1 0.0
31/01:30am 13.0 11.6 8.7 75 2.2 ESE 6 9 3 5 1007.6 1005.2 0.0
31/01:00am 14.8 12.5 7.6 62 3.7 SE 9 11 5 6 1007.9 1005.5 0.0
31/12:30am 16.7 16.0 7.1 53 4.9 CALM 0 0 0 0 1008.1 1005.7 0.0
31/12:00am 16.8 16.0 6.6 51 5.1 CALM 0 0 0 0 1008.2 1005.8 0.0
 
Date/Time
EDT
Temp
°C
App
Temp
°C
Dew
Point
Rel
Hum
%
Delta-T
°C
Wind Press
QNH
hPa
Press
MSL
hPa
Rain
since 9 am
mm
Dir
 
Spd
km/h
Gust
km/h
Spd
kts
Gust
kts
30/11:30pm 14.3 14.0 8.7 69 2.9 CALM 0 0 0 0 1008.3 1005.9 0.0
30/11:00pm 17.2 15.4 7.3 52 5.1 ENE 6 7 3 4 1008.5 1006.1 0.0
30/10:30pm 18.0 16.5 6.8 48 5.7 SSE 4 9 2 5 1008.4 1006.0 0.0
30/10:00pm 17.4 16.9 7.7 53 5.0 CALM 0 0 0 0 1008.2 1005.8 0.0
30/09:30pm 16.5 15.7 8.2 58 4.3 SW 2 6 1 3 1007.9 1005.5 0.0
30/09:00pm 19.6 16.9 5.6 40 7.1 SSW 9 11 5 6 1007.5 1005.1 0.0
30/08:30pm 20.5 17.3 4.9 36 7.8 S 11 13 6 7 1007.1 1004.8 0.0
30/08:00pm 21.8 18.0 3.9 31 8.9 SW 13 17 7 9 1006.8 1004.5 0.0
30/07:30pm 25.1 20.7 2.5 23 11.1 SW 15 20 8 11 1006.5 1004.2 0.0
30/07:00pm 26.8 21.3 2.0 20 12.3 WSW 20 26 11 14 1006.2 1003.8 0.0
30/06:30pm 27.6 21.6 3.3 21 12.3 WSW 24 37 13 20 1005.9 1003.5 0.0
30/06:00pm 28.2 22.2 3.1 20 12.8 W 24 33 13 18 1005.9 1003.5 0.0
30/05:30pm 28.7 23.2 4.2 21 12.7 W 22 37 12 20 1005.9 1003.5 0.0
30/05:00pm 28.8 23.6 3.6 20 13.0 W 20 30 11 16 1005.9 1003.5 0.0
30/04:30pm 28.6 22.5 2.7 19 13.1 W 24 41 13 22 1006.2 1003.8 0.0
30/04:00pm 28.2 23.3 5.1 23 12.2 W 20 32 11 17 1006.6 1004.3 0.0
30/03:30pm 28.5 24.4 6.0 24 12.0 W 17 26 9 14 1006.9 1004.6 0.0
30/03:00pm 27.5 21.8 5.1 24 11.7 WNW 24 35 13 19 1007.1 1004.8 0.0
30/02:30pm 27.1 23.4 6.5 27 11.0 W 15 22 8 12 1007.7 1005.3 0.0
30/02:00pm 27.4 23.8 6.8 27 11.1 W 15 30 8 16 1008.3 1005.9 0.0
30/01:30pm 26.9 22.0 6.9 28 10.8 W 22 35 12 19 1008.8 1006.5 0.0
30/01:00pm 26.6 22.1 7.1 29 10.5 W 20 33 11 18 1009.2 1006.9 0.0
30/12:30pm 25.5 19.6 5.7 28 10.3 W 26 41 14 22 1009.6 1007.3 0.0
30/12:00pm 25.1 19.5 3.7 25 10.8 WNW 22 39 12 21 1009.7 1007.4 0.0
30/11:30am 24.5 20.9 6.7 32 9.4 WNW 15 28 8 15 1010.1 1007.7 0.0
30/11:00am 22.9 20.8 8.2 39 7.9 NNW 9 17 5 9 1010.4 1008.0 0.0
30/10:30am 22.4 20.5 8.9 42 7.3 NW 9 13 5 7 1010.6 1008.2 0.0
30/10:00am 20.7 19.4 7.7 43 6.9 NNW 4 11 2 6 1010.7 1008.3 0.0
30/09:30am 19.2 17.3 7.6 47 6.0 N 7 13 4 7 1010.8 1008.4 0.0
30/09:00am 18.2 17.8 8.2 52 5.2 CALM 0 6 0 3 1010.9 1008.6 0.0
30/08:30am 17.0 15.9 8.4 57 4.5 ENE 4 7 2 4 1010.9 1008.6 0.0
30/08:00am 16.2 15.0 9.6 65 3.5 SE 6 7 3 4 1010.9 1008.6 0.0
30/07:30am 14.2 12.7 9.2 72 2.6 SSE 7 9 4 5 1010.6 1008.2 0.0
30/07:00am 13.0 11.8 9.4 79 1.9 SE 6 7 3 4 1010.2 1007.8 0.0
30/06:30am 11.6 9.8 9.3 86 1.2 SE 9 11 5 6 1009.9 1007.6 0.0
30/06:00am 11.5 9.6 9.2 86 1.2 SE 9 11 5 6 1009.6 1007.3 0.0
30/05:30am 11.8 10.4 9.4 85 1.2 SE 7 9 4 5 1009.3 1007.0 0.0
30/05:00am 12.0 10.6 9.6 85 1.2 SSE 7 9 4 5 1009.3 1007.0 0.0
30/04:30am 12.2 10.4 9.6 84 1.3 SE 9 11 5 6 1009.4 1007.1 0.0
30/04:00am 12.4 10.3 9.6 83 1.5 SSE 11 13 6 7 1009.5 1007.2 0.0
30/03:30am 12.5 10.1 9.9 84 1.4 SSE 13 15 7 8 1009.6 1007.3 0.0
30/03:00am 12.7 10.1 9.5 81 1.7 SSE 13 15 7 8 1009.8 1007.5 0.0
30/02:30am 13.5 10.7 9.9 79 1.9 SSE 15 19 8 10 1010.2 1007.8 0.0
30/02:00am 13.1 11.4 9.7 80 1.8 SE 9 13 5 7 1010.4 1008.0 0.0
30/01:30am 13.7 11.3 9.9 78 2.0 SSE 13 15 7 8 1010.5 1008.1 0.0
30/01:00am 14.0 12.4 10.2 78 2.0 SSE 9 13 5 7 1010.6 1008.2 0.0
30/12:30am 12.7 11.6 9.9 83 1.5 S 6 9 3 5 1010.8 1008.4 0.0
30/12:00am 14.4 12.9 10.4 77 2.1 SSE 9 11 5 6 1011.1 1008.8 0.0
 
Date/Time
EDT
Temp
°C
App
Temp
°C
Dew
Point
Rel
Hum
%
Delta-T
°C
Wind Press
QNH
hPa
Press
MSL
hPa
Rain
since 9 am
mm
Dir
 
Spd
km/h
Gust
km/h
Spd
kts
Gust
kts
29/11:30pm 14.3 13.2 10.1 76 2.2 SE 6 7 3 4 1011.1 1008.8 0.0
29/11:00pm 15.2 15.0 10.4 73 2.6 SE 2 7 1 4 1011.1 1008.8 0.0
29/10:30pm 15.8 15.9 10.1 69 3.1 CALM 0 0 0 0 1011.0 1008.7 0.0
29/10:00pm 17.0 17.3 10.8 67 3.4 CALM 0 6 0 3 1011.0 1008.7 0.0
29/09:30pm 17.5 15.8 9.7 60 4.2 SSW 9 9 5 5 1010.9 1008.6 0.0
29/09:00pm 18.4 16.6 9.5 56 4.8 S 9 11 5 6 1010.8 1008.4 0.0
29/08:30pm 19.1 17.3 9.6 54 5.1 S 9 11 5 6 1010.6 1008.2 0.0
29/08:00pm 19.9 17.3 9.2 50 5.8 S 13 15 7 8 1010.4 1008.0 0.0
29/07:30pm 22.7 19.8 6.5 35 8.4 S 11 17 6 9 1010.1 1007.7 0.0
29/07:00pm 23.9 19.8 6.2 32 9.3 S 17 22 9 12 1009.7 1007.4 0.0
29/06:30pm 24.7 20.9 6.0 30 9.8 S 15 19 8 10 1009.6 1007.3 0.0
29/06:00pm 25.5 22.3 6.7 30 10.0 S 13 20 7 11 1009.6 1007.3 0.0
29/05:30pm 23.7 18.6 6.0 32 9.2 SSW 22 30 12 16 1009.7 1007.4 0.0
29/05:00pm 25.1 21.0 6.3 30 9.9 SW 17 28 9 15 1009.8 1007.5 0.0
29/04:30pm 24.8 20.8 6.5 31 9.7 S 17 32 9 17 1010.1 1007.7 0.0
29/04:00pm 25.4 20.3 7.5 32 9.7 S 24 37 13 20 1010.2 1007.8 0.0
29/03:30pm 25.8 20.9 8.3 33 9.6 SW 24 33 13 18 1010.2 1007.8 0.0
29/03:00pm 26.4 21.1 6.9 29 10.5 SW 24 39 13 21 1010.4 1008.0 0.0
29/02:30pm 25.4 20.4 6.6 30 10.0 SSW 22 35 12 19 1010.7 1008.3 0.0
29/02:00pm 26.2 21.7 6.3 28 10.6 SSW 19 28 10 15 1010.8 1008.4 0.0
29/01:30pm 25.1 22.0 9.0 36 8.9 SSW 15 30 8 16 1011.2 1008.9 0.0
29/01:00pm 24.3 21.1 8.3 36 8.7 SW 15 24 8 13 1011.5 1009.2 0.0
29/12:30pm 23.5 21.6 9.1 40 7.9 SSW 9 20 5 11 1012.0 1009.7 0.0
29/12:00pm 22.2 19.6 9.4 44 7.0 SSE 13 20 7 11 1012.3 1010.0 0.0
29/11:30am 21.7 19.6 8.2 42 7.2 S 9 20 5 11 1012.4 1010.1 0.0
29/11:00am 20.9 18.8 8.2 44 6.8 SSE 9 17 5 9 1012.6 1010.3 0.0
29/10:30am 20.3 18.8 8.6 47 6.2 SE 6 15 3 8 1012.8 1010.4 0.0
29/10:00am 20.0 18.6 9.6 51 5.7 ESE 7 13 4 7 1012.8 1010.4 0.0
29/09:30am 19.8 17.5 10.5 55 5.1 SE 13 19 7 10 1012.9 1010.5 0.0
29/09:00am 18.4 15.6 11.2 63 4.0 SSE 17 20 9 11 1013.0 1010.6 5.6
29/08:30am 17.1 14.0 11.6 70 3.1 SSE 19 24 10 13 1013.1 1010.8 5.6
29/08:00am 16.3 14.0 11.7 74 2.5 SSE 15 20 8 11 1013.1 1010.8 5.6

Other Formats:

Comma delimited format used in spreadsheet applications
http://www.bom.gov.au/fwo/IDN60801/IDN60801.95762.axf

JavaScript Object Notation format (JSON) in row-major order
http://www.bom.gov.au/fwo/IDN60801/IDN60801.95762.json